Time;durP1;ratioP1;P1;durP2;ratioP2;P2;SDS_P1;SDS_P2;PMS_P1;PMS_P2;Temp;Humidity;BMP_temperature;BMP_pressure;BME280_temperature;BME280_humidity;BME280_pressure;Samples;Min_cycle;Max_cycle;Signal;HPM_P1;HPM_P2
2023/09/01 00:00:37;;;;;;;;;;;;;;;-140.72;100.00;52662.78;6242374;23;20244;-67
2023/09/01 00:03:02;;;;;;;;;;;;;;;-140.72;100.00;52683.06;6244365;22;19915;-67
2023/09/01 00:05:32;;;;;;;;;;;;;;;-140.72;100.00;52672.91;6243122;22;19968;-67
2023/09/01 00:07:57;;;;;;;;;;;;;;;-140.72;100.00;52636.38;6244909;22;20359;-67
2023/09/01 00:10:22;;;;;;;;;;;;;;;-140.72;100.00;52648.56;6244556;23;19912;-67
2023/09/01 00:12:47;;;;;;;;;;;;;;;-140.72;100.00;52662.78;6242629;23;19919;-67
2023/09/01 00:15:13;;;;;;;;;;;;;;;-140.72;100.00;52711.47;6242038;23;19966;-68
2023/09/01 00:17:38;;;;;;;;;;;;;;;-140.72;100.00;52687.13;6244434;23;20279;-68
2023/09/01 00:20:04;;;;;;;;;;;;;;;-140.72;100.00;52691.19;6244961;23;19911;-69
2023/09/01 00:22:29;;;;;;;;;;;;;;;-140.72;100.00;52695.25;6242976;23;19912;-68
2023/09/01 00:24:54;;;;;;;;;;;;;;;-140.72;100.00;52660.75;6241755;23;19915;-68
2023/09/01 00:27:19;;;;;;;;;;;;;;;-140.72;100.00;52676.97;6242352;23;19912;-72
2023/09/01 00:29:44;;;;;;;;;;;;;;;-140.72;100.00;52646.53;6244373;23;19923;-68
2023/09/01 00:32:10;;;;;;;;;;;;;;;-140.72;100.00;52699.31;6244211;23;19916;-68
2023/09/01 00:34:35;;;;;;;;;;;;;;;-140.72;100.00;52644.50;6244056;23;19915;-68
2023/09/01 00:37:00;;;;;;;;;;;;;;;-140.72;100.00;52683.06;6243940;23;19939;-68
2023/09/01 00:39:25;;;;;;;;;;;;;;;-140.72;100.00;52672.91;6242791;23;19995;-68
2023/09/01 00:41:52;;;;;;;;;;;;;;;-140.72;100.00;52670.88;6242989;23;20445;-68
2023/09/01 00:44:17;;;;;;;;;;;;;;;-140.72;100.00;52666.84;6243662;23;19923;-68
2023/09/01 00:46:46;;;;;;;;;;;;;;;-140.72;100.00;52674.94;6243927;22;19915;-68
2023/09/01 00:49:17;;;;;;;;;;;;;;;-140.72;100.00;52687.13;6242203;23;19916;-68
2023/09/01 00:51:46;;;;;;;;;;;;;;;-140.72;100.00;52646.53;6242576;23;19912;-68
2023/09/01 00:54:14;;;;;;;;;;;;;;;-140.72;100.00;52638.41;6244530;22;19965;-68
2023/09/01 00:56:39;;;;;;;;;;;;;;;-140.72;100.00;52652.63;6243303;23;19919;-68
2023/09/01 00:59:05;;;;;;;;;;;;;;;-140.72;100.00;52650.59;6242680;23;19912;-67
2023/09/01 01:01:30;;;;;;;;;;;;;;;-140.72;100.00;52658.72;6242631;22;20347;-67
2023/09/01 01:03:55;;;;;;;;;;;;;;;-140.72;100.00;52666.84;6243557;22;19912;-67
2023/09/01 01:06:30;;;;;;;;;;;;;;;-140.72;100.00;52650.59;6244425;23;19912;-67
2023/09/01 01:09:08;;;;;;;;;;;;;;;-140.72;100.00;52652.63;6243719;22;20329;-67
2023/09/01 01:11:56;;;;;;;;;;;;;;;-140.72;100.00;52674.94;6244392;22;19942;-67
2023/09/01 01:14:23;;;;;;;;;;;;;;;-140.72;100.00;52622.19;6200048;23;19919;-67
2023/09/01 01:16:50;;;;;;;;;;;;;;;-140.72;100.00;52666.84;6244259;22;19916;-67
2023/09/01 01:19:26;;;;;;;;;;;;;;;-140.72;100.00;52674.94;6243825;22;19912;-67
2023/09/01 01:21:52;;;;;;;;;;;;;;;-140.72;100.00;52640.44;6242972;22;19994;-67
2023/09/01 01:24:17;;;;;;;;;;;;;;;-140.72;100.00;52646.53;6242696;23;20101;-67
2023/09/01 01:26:43;;;;;;;;;;;;;;;-140.72;100.00;52644.50;6244517;22;19915;-67
2023/09/01 01:29:08;;;;;;;;;;;;;;;-140.72;100.00;52664.81;6242370;23;19912;-67
2023/09/01 01:31:33;;;;;;;;;;;;;;;-140.72;100.00;52666.84;6241779;22;19915;-67
2023/09/01 01:34:17;;;;;;;;;;;;;;;-140.72;100.00;52662.78;6242211;22;20244;-67
2023/09/01 01:36:42;;;;;;;;;;;;;;;-140.72;100.00;52644.50;6241861;23;19918;-67
2023/09/01 01:39:12;;;;;;;;;;;;;;;-140.72;100.00;52654.66;6242174;23;20294;-67
2023/09/01 01:41:48;;;;;;;;;;;;;;;-140.72;100.00;52681.03;6244069;22;19962;-68
2023/09/01 01:44:15;;;;;;;;;;;;;;;-140.72;100.00;52658.72;6246164;22;20547;-68
2023/09/01 01:46:40;;;;;;;;;;;;;;;-140.72;100.00;52658.72;6245803;22;20225;-68
2023/09/01 01:49:09;;;;;;;;;;;;;;;-140.72;100.00;52662.78;6244080;23;19987;-67
2023/09/01 01:51:35;;;;;;;;;;;;;;;-140.72;100.00;52630.31;6244079;23;20226;-67
2023/09/01 01:54:00;;;;;;;;;;;;;;;-140.72;100.00;52691.19;6243587;23;19916;-67
2023/09/01 01:56:25;;;;;;;;;;;;;;;-140.72;100.00;52654.66;6244203;23;19990;-67
2023/09/01 01:58:51;;;;;;;;;;;;;;;-140.72;100.00;52646.53;6245715;22;19912;-67
2023/09/01 02:01:16;;;;;;;;;;;;;;;-140.72;100.00;52685.09;6244193;23;19912;-67
2023/09/01 02:03:41;;;;;;;;;;;;;;;-140.72;100.00;52632.34;6245993;23;19986;-67
2023/09/01 02:06:06;;;;;;;;;;;;;;;-140.72;100.00;52685.09;6245325;23;19918;-67
2023/09/01 02:08:32;;;;;;;;;;;;;;;-140.72;100.00;52666.84;6245357;23;20299;-67
2023/09/01 02:10:57;;;;;;;;;;;;;;;-140.72;100.00;52705.38;6245851;23;20255;-67
2023/09/01 02:13:22;;;;;;;;;;;;;;;-140.72;100.00;52674.94;6246681;23;20258;-68
2023/09/01 02:15:52;;;;;;;;;;;;;;;-140.72;100.00;52646.53;6245643;22;19921;-67
2023/09/01 02:18:17;;;;;;;;;;;;;;;-140.72;100.00;52660.75;6245509;23;20026;-67
2023/09/01 02:20:42;;;;;;;;;;;;;;;-140.72;100.00;52636.38;6246734;22;19915;-67
2023/09/01 02:23:08;;;;;;;;;;;;;;;-140.72;100.00;52660.75;6244906;23;19912;-68
2023/09/01 02:25:37;;;;;;;;;;;;;;;-140.72;100.00;52658.72;6244123;23;20355;-67
2023/09/01 02:28:04;;;;;;;;;;;;;;;-140.72;100.00;52672.91;6242880;23;19916;-67
2023/09/01 02:30:29;;;;;;;;;;;;;;;-140.72;100.00;52662.78;6218065;23;20431;-67
2023/09/01 02:32:54;;;;;;;;;;;;;;;-140.72;100.00;52711.47;6243467;23;20050;-67
2023/09/01 02:35:19;;;;;;;;;;;;;;;-140.72;100.00;52642.47;6243049;23;20683;-68
2023/09/01 02:37:45;;;;;;;;;;;;;;;-140.72;100.00;52670.88;6243729;23;19922;-68
2023/09/01 02:40:10;;;;;;;;;;;;;;;-140.72;100.00;52668.84;6243223;22;19912;-68
2023/09/01 02:42:36;;;;;;;;;;;;;;;-140.72;100.00;52676.97;6245464;23;20026;-68
2023/09/01 02:45:02;;;;;;;;;;;;;;;-140.72;100.00;52650.59;6244437;22;20336;-67
2023/09/01 02:47:27;;;;;;;;;;;;;;;-140.72;100.00;52679.00;6244896;22;19915;-68
2023/09/01 02:49:52;;;;;;;;;;;;;;;-140.72;100.00;52668.84;6244717;23;19912;-68
2023/09/01 02:52:17;;;;;;;;;;;;;;;-140.72;100.00;52693.22;6243662;23;19922;-68
2023/09/01 02:54:43;;;;;;;;;;;;;;;-140.72;100.00;52693.22;6242862;23;19930;-68
2023/09/01 02:57:08;;;;;;;;;;;;;;;-140.72;100.00;52679.00;6243180;23;19916;-68
2023/09/01 02:59:33;;;;;;;;;;;;;;;-140.72;100.00;52711.47;6242332;23;19911;-68
2023/09/01 03:01:58;;;;;;;;;;;;;;;-140.72;100.00;52679.00;6243737;23;19919;-68
2023/09/01 03:04:23;;;;;;;;;;;;;;;-140.72;100.00;52670.88;6241996;23;19916;-68
2023/09/01 03:06:49;;;;;;;;;;;;;;;-140.72;100.00;52707.41;6243951;23;19911;-68
2023/09/01 03:09:15;;;;;;;;;;;;;;;-140.72;100.00;52707.41;6243346;23;19916;-68
2023/09/01 03:11:41;;;;;;;;;;;;;;;-140.72;100.00;52662.78;6245145;23;19994;-68
2023/09/01 03:14:06;;;;;;;;;;;;;;;-140.72;100.00;52695.25;6241714;23;20005;-68
2023/09/01 03:16:31;;;;;;;;;;;;;;;-140.72;100.00;52628.28;6243277;23;20009;-68
2023/09/01 03:18:59;;;;;;;;;;;;;;;-140.72;100.00;52715.53;6243982;23;19969;-68
2023/09/01 03:21:26;;;;;;;;;;;;;;;-140.72;100.00;52685.09;6242815;23;20014;-68
2023/09/01 03:23:52;;;;;;;;;;;;;;;-140.72;100.00;52681.03;6244138;22;19912;-68
2023/09/01 03:26:17;;;;;;;;;;;;;;;-140.72;100.00;52699.31;6243334;22;20374;-67
2023/09/01 03:28:43;;;;;;;;;;;;;;;-140.72;100.00;52676.97;6242814;23;20021;-67
2023/09/01 03:31:09;;;;;;;;;;;;;;;-140.72;100.00;52739.88;6245072;23;20328;-68
2023/09/01 03:33:35;;;;;;;;;;;;;;;-140.72;100.00;52660.75;6247009;22;19918;-67
2023/09/01 03:36:01;;;;;;;;;;;;;;;-140.72;100.00;52687.13;6246127;23;19911;-68
2023/09/01 03:38:26;;;;;;;;;;;;;;;-140.72;100.00;52707.41;6246636;22;19911;-68
2023/09/01 03:40:51;;;;;;;;;;;;;;;-140.72;100.00;52691.19;6246049;23;19918;-68
2023/09/01 03:43:17;;;;;;;;;;;;;;;-140.72;100.00;52721.63;6246314;23;20108;-68
2023/09/01 03:45:42;;;;;;;;;;;;;;;-140.72;100.00;52725.69;6245223;22;19920;-68
2023/09/01 03:48:08;;;;;;;;;;;;;;;-140.72;100.00;52666.84;6244862;22;19915;-68
2023/09/01 03:50:33;;;;;;;;;;;;;;;-140.72;100.00;52703.34;6244028;23;19918;-68
2023/09/01 03:52:59;;;;;;;;;;;;;;;-140.72;100.00;52691.19;6246215;22;19919;-68
2023/09/01 03:55:24;;;;;;;;;;;;;;;-140.72;100.00;52737.84;6245731;23;19912;-68
2023/09/01 03:57:49;;;;;;;;;;;;;;;-140.72;100.00;52729.75;6246231;23;19911;-68
2023/09/01 04:00:15;;;;;;;;;;;;;;;-140.72;100.00;52709.44;6244346;23;19955;-68
2023/09/01 04:02:40;;;;;;;;;;;;;;;-140.72;100.00;52707.41;6245821;22;19965;-67
2023/09/01 04:05:05;;;;;;;;;;;;;;;-140.72;100.00;52685.09;6244368;23;19934;-67
2023/09/01 04:07:31;;;;;;;;;;;;;;;-140.72;100.00;52727.72;6244743;23;20248;-67
2023/09/01 04:09:58;;;;;;;;;;;;;;;-140.72;100.00;52715.53;6245780;23;19924;-69
2023/09/01 04:12:23;;;;;;;;;;;;;;;-140.72;100.00;52717.56;6244918;23;19911;-68
2023/09/01 04:14:48;;;;;;;;;;;;;;;-140.72;100.00;52731.75;6245926;23;19911;-67
2023/09/01 04:17:13;;;;;;;;;;;;;;;-140.72;100.00;52745.97;6245679;23;20338;-67
2023/09/01 04:19:39;;;;;;;;;;;;;;;-140.72;100.00;52713.50;6244294;23;20379;-67
2023/09/01 04:22:04;;;;;;;;;;;;;;;-140.72;100.00;52670.88;6246309;23;20340;-67
2023/09/01 04:24:29;;;;;;;;;;;;;;;-140.72;100.00;52693.22;6245631;23;20201;-67
2023/09/01 04:26:54;;;;;;;;;;;;;;;-140.72;100.00;52729.75;6244430;23;20320;-67
2023/09/01 04:29:19;;;;;;;;;;;;;;;-140.72;100.00;52717.56;6243956;23;19912;-67
2023/09/01 04:31:47;;;;;;;;;;;;;;;-140.72;100.00;52764.25;6245486;23;19998;-67
2023/09/01 04:34:13;;;;;;;;;;;;;;;-140.72;100.00;52705.38;6245599;22;20343;-67
2023/09/01 04:36:39;;;;;;;;;;;;;;;-140.72;100.00;52699.31;6243991;23;19920;-67
2023/09/01 04:39:04;;;;;;;;;;;;;;;-140.72;100.00;52715.53;6246058;23;19942;-67
2023/09/01 04:41:30;;;;;;;;;;;;;;;-140.72;100.00;52713.50;6244065;22;19960;-67
2023/09/01 04:43:55;;;;;;;;;;;;;;;-140.72;100.00;52691.19;6246139;22;20236;-67
2023/09/01 04:46:20;;;;;;;;;;;;;;;-140.72;100.00;52679.00;6247777;22;19922;-68
2023/09/01 04:48:45;;;;;;;;;;;;;;;-140.72;100.00;52681.03;6246512;23;19912;-67
2023/09/01 04:51:11;;;;;;;;;;;;;;;-140.72;100.00;52689.16;6246121;23;19912;-67
2023/09/01 04:53:36;;;;;;;;;;;;;;;-140.72;100.00;52685.09;6245869;23;19973;-69
2023/09/01 04:56:02;;;;;;;;;;;;;;;-140.72;100.00;52709.44;6243777;23;19912;-67
2023/09/01 04:58:27;;;;;;;;;;;;;;;-140.72;100.00;52725.69;6245892;23;20039;-67
2023/09/01 05:00:53;;;;;;;;;;;;;;;-140.72;100.00;52731.75;6243740;23;19918;-67
2023/09/01 05:03:18;;;;;;;;;;;;;;;-140.72;100.00;52752.06;6243767;23;19912;-67
2023/09/01 05:05:44;;;;;;;;;;;;;;;-140.72;100.00;52693.22;6245439;23;19912;-67
2023/09/01 05:08:09;;;;;;;;;;;;;;;-140.72;100.00;52713.50;6245285;23;20326;-67
2023/09/01 05:10:34;;;;;;;;;;;;;;;-140.72;100.00;52717.56;6245441;22;19994;-67
2023/09/01 05:12:59;;;;;;;;;;;;;;;-140.72;100.00;52681.03;6245275;22;19947;-68
2023/09/01 05:15:25;;;;;;;;;;;;;;;-140.72;100.00;52683.06;6247039;23;19919;-67
2023/09/01 05:17:50;;;;;;;;;;;;;;;-140.72;100.00;52691.19;6246127;23;19922;-67
2023/09/01 05:20:15;;;;;;;;;;;;;;;-140.72;100.00;52693.22;6246983;23;20235;-70
2023/09/01 05:22:41;;;;;;;;;;;;;;;-140.72;100.00;52699.31;6247784;23;19999;-69
2023/09/01 05:25:07;;;;;;;;;;;;;;;-140.72;100.00;52676.97;6247701;22;19912;-70
2023/09/01 05:27:32;;;;;;;;;;;;;;;-140.72;100.00;52711.47;6247614;22;20208;-70
2023/09/01 05:29:57;;;;;;;;;;;;;;;-140.72;100.00;52707.41;6247553;23;19922;-68
2023/09/01 05:32:22;;;;;;;;;;;;;;;-140.72;100.00;52719.59;6245977;23;19916;-68
2023/09/01 05:34:48;;;;;;;;;;;;;;;-140.72;100.00;52679.00;6245878;23;19987;-68
2023/09/01 05:37:13;;;;;;;;;;;;;;;-140.72;100.00;52693.22;6247318;22;19911;-70
2023/09/01 05:39:39;;;;;;;;;;;;;;;-140.72;100.00;52693.22;6247378;22;19912;-70
2023/09/01 05:42:04;;;;;;;;;;;;;;;-140.72;100.00;52658.72;6245609;22;19911;-70
2023/09/01 05:44:30;;;;;;;;;;;;;;;-140.72;100.00;52679.00;6245451;22;19920;-69
2023/09/01 05:46:57;;;;;;;;;;;;;;;-140.72;100.00;52668.84;6244498;22;19915;-69
2023/09/01 05:49:23;;;;;;;;;;;;;;;-140.72;100.00;52662.78;6246571;23;19911;-72
2023/09/01 05:51:49;;;;;;;;;;;;;;;-140.72;100.00;52679.00;6245048;23;20316;-69
2023/09/01 05:54:15;;;;;;;;;;;;;;;-140.72;100.00;52662.78;6247594;23;19994;-70
2023/09/01 05:56:41;;;;;;;;;;;;;;;-140.72;100.00;52670.88;6245128;23;19965;-69
2023/09/01 05:59:06;;;;;;;;;;;;;;;-140.72;100.00;52650.59;6247358;22;20343;-69
2023/09/01 06:01:35;;;;;;;;;;;;;;;-140.72;100.00;52662.78;6246413;23;19911;-69
2023/09/01 06:04:00;;;;;;;;;;;;;;;-140.72;100.00;52685.09;6245429;23;19918;-69
2023/09/01 06:06:26;;;;;;;;;;;;;;;-140.72;100.00;52642.47;6245727;23;19986;-69
2023/09/01 06:08:51;;;;;;;;;;;;;;;-140.72;100.00;52691.19;6245748;23;19966;-72
2023/09/01 06:11:16;;;;;;;;;;;;;;;-140.72;100.00;52707.41;6247064;23;20358;-70
2023/09/01 06:13:49;;;;;;;;;;;;;;;-140.72;100.00;52683.06;6247102;23;20248;-69
2023/09/01 06:16:14;;;;;;;;;;;;;;;-140.72;100.00;52672.91;6246767;23;19918;-68
2023/09/01 06:18:39;;;;;;;;;;;;;;;-140.72;100.00;52654.66;6246787;22;19912;-68
2023/09/01 06:21:04;;;;;;;;;;;;;;;-140.72;100.00;52652.63;6245212;23;19920;-68
2023/09/01 06:23:31;;;;;;;;;;;;;;;-140.72;100.00;52709.44;6245449;23;19922;-69
2023/09/01 06:25:56;;;;;;;;;;;;;;;-140.72;100.00;52691.19;6245281;22;19965;-69
2023/09/01 06:28:22;;;;;;;;;;;;;;;-140.72;100.00;52658.72;6243995;23;20271;-69
2023/09/01 06:30:47;;;;;;;;;;;;;;;-140.72;100.00;52697.28;6243153;23;19912;-69
2023/09/01 06:33:12;;;;;;;;;;;;;;;-140.72;100.00;52666.84;6245256;22;19951;-69
2023/09/01 06:35:37;;;;;;;;;;;;;;;-140.72;100.00;52654.66;6245025;22;20328;-70
2023/09/01 06:38:05;;;;;;;;;;;;;;;-140.72;100.00;52695.25;6245121;23;20347;-69
2023/09/01 06:40:30;;;;;;;;;;;;;;;-140.72;100.00;52664.81;6246659;22;20301;-69
2023/09/01 06:42:55;;;;;;;;;;;;;;;-140.72;100.00;52642.47;6247549;22;19911;-69
2023/09/01 06:45:21;;;;;;;;;;;;;;;-140.72;100.00;52652.63;6244804;22;19924;-69
2023/09/01 06:47:46;;;;;;;;;;;;;;;-140.72;100.00;52660.75;6245207;23;19915;-69
2023/09/01 06:50:12;;;;;;;;;;;;;;;-140.72;100.00;52662.78;6245154;23;20348;-69
2023/09/01 06:52:37;;;;;;;;;;;;;;;-140.72;100.00;52652.63;6245125;23;19915;-69
2023/09/01 06:55:02;;;;;;;;;;;;;;;-140.72;100.00;52670.88;6246397;23;19918;-69
2023/09/01 06:57:27;;;;;;;;;;;;;;;-140.72;100.00;52624.22;6246535;23;20348;-70
2023/09/01 06:59:53;;;;;;;;;;;;;;;-140.72;100.00;52632.34;6246360;23;19918;-69
2023/09/01 07:02:18;;;;;;;;;;;;;;;-140.72;100.00;52650.59;6245185;23;20282;-69
2023/09/01 07:04:43;;;;;;;;;;;;;;;-140.72;100.00;52666.84;6246362;23;20334;-69
2023/09/01 07:07:11;;;;;;;;;;;;;;;-140.72;100.00;52634.38;6246089;23;19911;-73
2023/09/01 07:09:37;;;;;;;;;;;;;;;-140.72;100.00;52689.16;6245091;23;19912;-69
2023/09/01 07:12:02;;;;;;;;;;;;;;;-140.72;100.00;52685.09;6244773;23;20278;-72
2023/09/01 07:14:28;;;;;;;;;;;;;;;-140.72;100.00;52662.78;6245017;23;19915;-71
2023/09/01 07:16:53;;;;;;;;;;;;;;;-140.72;100.00;52636.38;6246093;23;20652;-69
2023/09/01 07:19:26;;;;;;;;;;;;;;;-140.72;100.00;52652.63;6245991;23;19919;-71
2023/09/01 07:21:52;;;;;;;;;;;;;;;-140.72;100.00;52650.59;6246019;23;19935;-73
2023/09/01 07:24:18;;;;;;;;;;;;;;;-140.72;100.00;52640.44;6246027;23;19920;-73
2023/09/01 07:26:43;;;;;;;;;;;;;;;-140.72;100.00;52638.41;6245592;23;19969;-72
2023/09/01 07:29:08;;;;;;;;;;;;;;;-140.72;100.00;52672.91;6245761;23;19915;-74
2023/09/01 07:31:34;;;;;;;;;;;;;;;-140.72;100.00;52658.72;6246842;22;19912;-73
2023/09/01 07:34:00;;;;;;;;;;;;;;;-140.72;100.00;52618.13;6246922;23;19915;-70
2023/09/01 07:36:26;;;;;;;;;;;;;;;-140.72;100.00;52634.38;6245041;22;20001;-72
2023/09/01 07:38:51;;;;;;;;;;;;;;;-140.72;100.00;52642.47;6244414;23;19997;-71
2023/09/01 07:41:16;;;;;;;;;;;;;;;-140.72;100.00;52644.50;6246744;22;19943;-70
2023/09/01 07:43:42;;;;;;;;;;;;;;;-140.72;100.00;52620.16;6246043;23;19911;-70
2023/09/01 07:46:07;;;;;;;;;;;;;;;-140.72;100.00;52642.47;6244574;22;19927;-70
2023/09/01 07:48:33;;;;;;;;;;;;;;;-140.72;100.00;52626.25;6244290;23;20320;-70
2023/09/01 07:50:58;;;;;;;;;;;;;;;-140.72;100.00;52593.78;6245456;23;19922;-73
2023/09/01 07:53:23;;;;;;;;;;;;;;;-140.72;100.00;52626.25;6244996;23;19915;-73
2023/09/01 07:55:48;;;;;;;;;;;;;;;-140.72;100.00;52626.25;6247046;23;19919;-73
2023/09/01 07:58:14;;;;;;;;;;;;;;;-140.72;100.00;52618.13;6245454;23;19942;-73
2023/09/01 08:00:40;;;;;;;;;;;;;;;-140.72;100.00;52620.16;6247089;23;20021;-74
2023/09/01 08:03:10;;;;;;;;;;;;;;;-140.72;100.00;52603.94;6245225;23;19916;-74
2023/09/01 08:05:35;;;;;;;;;;;;;;;-140.72;100.00;52618.13;6246469;23;20345;-71
2023/09/01 08:08:00;;;;;;;;;;;;;;;-140.72;100.00;52634.38;6245459;23;20041;-73
2023/09/01 08:10:26;;;;;;;;;;;;;;;-140.72;100.00;52681.03;6246700;23;19918;-72
2023/09/01 08:12:51;;;;;;;;;;;;;;;-140.72;100.00;52638.41;6244854;23;19912;-73
2023/09/01 08:15:16;;;;;;;;;;;;;;;-140.72;100.00;52646.53;6246390;23;20376;-73
2023/09/01 08:17:41;;;;;;;;;;;;;;;-140.72;100.00;52650.59;6244244;23;20600;-74
2023/09/01 08:20:07;;;;;;;;;;;;;;;-140.72;100.00;52603.94;6244739;22;19912;-73
2023/09/01 08:22:32;;;;;;;;;;;;;;;-140.72;100.00;52640.44;6244263;23;19923;-70
2023/09/01 08:24:58;;;;;;;;;;;;;;;-140.72;100.00;52593.78;6244866;23;19916;-73
2023/09/01 08:27:25;;;;;;;;;;;;;;;-140.72;100.00;52644.50;6245611;23;19912;-70
2023/09/01 08:29:57;;;;;;;;;;;;;;;-140.72;100.00;52601.91;6244043;23;19912;-70
2023/09/01 08:32:23;;;;;;;;;;;;;;;-140.72;100.00;52650.59;6246082;22;19916;-70
2023/09/01 08:34:48;;;;;;;;;;;;;;;-140.72;100.00;52634.38;6245606;23;19915;-73
2023/09/01 08:37:15;;;;;;;;;;;;;;;-140.72;100.00;52648.56;6246052;23;19907;-70
2023/09/01 08:39:41;;;;;;;;;;;;;;;-140.72;100.00;52640.44;6246533;23;19919;-70
2023/09/01 08:42:21;;;;;;;;;;;;;;;-140.72;100.00;52614.06;6244280;23;19912;-69
2023/09/01 08:44:48;;;;;;;;;;;;;;;-140.72;100.00;52642.47;6245926;23;19919;-71
2023/09/01 08:47:14;;;;;;;;;;;;;;;-140.72;100.00;52642.47;6244169;22;19938;-71
2023/09/01 08:49:42;;;;;;;;;;;;;;;-140.72;100.00;52648.56;6244389;23;19939;-75
2023/09/01 08:52:09;;;;;;;;;;;;;;;-140.72;100.00;52648.56;6244340;23;19961;-73
2023/09/01 08:54:37;;;;;;;;;;;;;;;-140.72;100.00;52662.78;6244942;23;19918;-74
2023/09/01 08:57:03;;;;;;;;;;;;;;;-140.72;100.00;52646.53;6245098;23;19915;-70
2023/09/01 08:59:28;;;;;;;;;;;;;;;-140.72;100.00;52644.50;6244590;23;20276;-70
2023/09/01 09:01:54;;;;;;;;;;;;;;;-140.72;100.00;52640.44;6245752;23;19917;-69
2023/09/01 09:04:19;;;;;;;;;;;;;;;-140.72;100.00;52601.91;6245568;23;20059;-74
2023/09/01 09:06:45;;;;;;;;;;;;;;;-140.72;100.00;52624.22;6243934;23;19923;-68
2023/09/01 09:09:14;;;;;;;;;;;;;;;-140.72;100.00;52656.69;6244239;23;19916;-69
2023/09/01 09:11:53;;;;;;;;;;;;;;;-140.72;100.00;52642.47;6245864;22;20216;-73
2023/09/01 09:14:43;;;;;;;;;;;;;;;-140.72;100.00;52599.88;6243902;23;19923;-68
2023/09/01 09:17:19;;;;;;;;;;;;;;;-140.72;100.00;52583.63;6245580;23;19961;-70
2023/09/01 09:19:52;;;;;;;;;;;;;;;-140.72;100.00;52646.53;6242581;23;20676;-67
2023/09/01 09:22:17;;;;;;;;;;;;;;;-140.72;100.00;52658.72;6244328;22;19916;-67
2023/09/01 09:24:58;;;;;;;;;;;;;;;-140.72;100.00;52634.38;6244918;23;20009;-67
2023/09/01 09:27:25;;;;;;;;;;;;;;;-140.72;100.00;52650.59;6243717;23;19912;-67
2023/09/01 09:29:50;;;;;;;;;;;;;;;-140.72;100.00;52638.41;6243304;23;20236;-67
2023/09/01 09:32:22;;;;;;;;;;;;;;;-140.72;100.00;52607.97;6245080;23;19919;-67
2023/09/01 09:35:05;;;;;;;;;;;;;;;-140.72;100.00;52638.41;6244892;22;19915;-67
2023/09/01 09:37:30;;;;;;;;;;;;;;;-140.72;100.00;52638.41;6243262;23;19961;-68
2023/09/01 09:40:08;;;;;;;;;;;;;;;-140.72;100.00;52630.31;6245204;23;19916;-68
2023/09/01 09:42:40;;;;;;;;;;;;;;;-140.72;100.00;52622.19;6246748;22;19977;-67
2023/09/01 09:45:20;;;;;;;;;;;;;;;-140.72;100.00;52614.06;6244108;22;19919;-68
2023/09/01 09:47:46;;;;;;;;;;;;;;;-140.72;100.00;52616.09;6267982;22;19993;-68
2023/09/01 09:50:11;;;;;;;;;;;;;;;-140.72;100.00;52632.34;6243560;22;20363;-68
2023/09/01 09:52:37;;;;;;;;;;;;;;;-140.72;100.00;52618.13;6243617;23;20324;-68
2023/09/01 09:55:05;;;;;;;;;;;;;;;-140.72;100.00;52581.59;6243711;23;19939;-70
2023/09/01 09:57:31;;;;;;;;;;;;;;;-140.72;100.00;52555.22;6245592;22;20320;-71
2023/09/01 10:00:10;;;;;;;;;;;;;;;-140.72;100.00;52549.13;6245629;22;19912;-71
2023/09/01 10:05:51;;;;;;;;;;;;;;;-140.72;100.00;52553.19;6247686;23;20339;-73
2023/09/01 10:08:19;;;;;;;;;;;;;;;-140.72;100.00;52581.59;6245668;23;19912;-70
2023/09/01 10:10:45;;;;;;;;;;;;;;;-140.72;100.00;52581.59;6246943;22;20388;-69
2023/09/01 10:13:23;;;;;;;;;;;;;;;-140.72;100.00;52549.13;6244660;23;19950;-68
2023/09/01 10:15:51;;;;;;;;;;;;;;;-140.72;100.00;52620.16;6246008;23;20328;-67
2023/09/01 10:18:34;;;;;;;;;;;;;;;-140.72;100.00;52605.94;6245214;23;19911;-67
2023/09/01 10:20:59;;;;;;;;;;;;;;;-140.72;100.00;52648.56;6245553;23;20225;-68
2023/09/01 10:23:27;;;;;;;;;;;;;;;-140.72;100.00;52599.88;6247198;23;19959;-68
2023/09/01 10:26:11;;;;;;;;;;;;;;;-140.72;100.00;52607.97;6246027;23;19911;-73
2023/09/01 10:29:13;;;;;;;;;;;;;;;-140.72;100.00;52618.13;6246075;23;19911;-68
2023/09/01 10:31:38;;;;;;;;;;;;;;;-140.72;100.00;52591.75;6154882;23;19912;-70
2023/09/01 10:34:12;;;;;;;;;;;;;;;-140.72;100.00;52605.94;6228562;23;20002;-70
2023/09/01 10:36:38;;;;;;;;;;;;;;;-140.72;100.00;52571.47;6247874;22;20413;-68
2023/09/01 10:39:30;;;;;;;;;;;;;;;-140.72;100.00;52591.75;6247589;22;19912;-69
2023/09/01 10:41:59;;;;;;;;;;;;;;;-140.72;100.00;52605.94;6243363;22;19934;-69
2023/09/01 10:44:44;;;;;;;;;;;;;;;-140.72;100.00;52571.47;6248862;22;19918;-68
2023/09/01 10:47:28;;;;;;;;;;;;;;;-140.72;100.00;52612.03;6246158;22;20317;-73
2023/09/01 10:49:54;;;;;;;;;;;;;;;-140.72;100.00;52585.66;6247606;23;19912;-68
2023/09/01 10:52:19;;;;;;;;;;;;;;;-140.72;100.00;52563.34;6247473;22;19918;-69
2023/09/01 10:54:45;;;;;;;;;;;;;;;-140.72;100.00;52587.69;6247823;23;19916;-69
2023/09/01 10:57:12;;;;;;;;;;;;;;;-140.72;100.00;52573.50;6247367;23;20220;-69
2023/09/01 10:59:37;;;;;;;;;;;;;;;-140.72;100.00;52541.03;6247797;22;19918;-70
2023/09/01 11:02:28;;;;;;;;;;;;;;;-140.72;100.00;52561.31;6247143;22;19986;-68
2023/09/01 11:04:53;;;;;;;;;;;;;;;-140.72;100.00;52591.75;6247741;23;19915;-69
2023/09/01 11:07:18;;;;;;;;;;;;;;;-140.72;100.00;52577.53;6247232;23;20286;-70
2023/09/01 11:09:50;;;;;;;;;;;;;;;-140.72;100.00;52539.00;6245776;23;19918;-71
2023/09/01 11:12:16;;;;;;;;;;;;;;;-140.72;100.00;52504.50;6246596;22;19917;-68
2023/09/01 11:15:10;;;;;;;;;;;;;;;-140.72;100.00;52421.28;6247080;23;20375;-71
2023/09/01 11:17:40;;;;;;;;;;;;;;;-140.72;100.00;52421.28;6225952;23;19918;-69
2023/09/01 11:20:08;;;;;;;;;;;;;;;-140.72;100.00;52382.75;6247258;22;20351;-68
2023/09/01 11:22:34;;;;;;;;;;;;;;;-140.72;100.00;52413.19;6245331;23;19912;-69
2023/09/01 11:25:00;;;;;;;;;;;;;;;-140.72;100.00;52407.09;6247122;22;19912;-70
2023/09/01 11:27:25;;;;;;;;;;;;;;;-140.72;100.00;52427.38;6245163;23;19919;-70
2023/09/01 11:29:54;;;;;;;;;;;;;;;-140.72;100.00;52484.19;6245898;23;20355;-70
2023/09/01 11:32:28;;;;;;;;;;;;;;;-140.72;100.00;52457.81;6245430;23;19919;-72
2023/09/01 11:34:53;;;;;;;;;;;;;;;-140.72;100.00;52433.47;6247019;22;20332;-71
2023/09/01 11:37:35;;;;;;;;;;;;;;;-140.72;100.00;52439.56;6246701;23;19938;-69
2023/09/01 11:40:00;;;;;;;;;;;;;;;-140.72;100.00;52411.16;6247204;22;19935;-70
2023/09/01 11:42:26;;;;;;;;;;;;;;;-140.72;100.00;52405.06;6246999;22;19912;-74
2023/09/01 11:44:51;;;;;;;;;;;;;;;-140.72;100.00;52435.50;6245144;22;19998;-70
2023/09/01 11:47:17;;;;;;;;;;;;;;;-140.72;100.00;52445.66;6246811;22;19970;-70
2023/09/01 11:49:42;;;;;;;;;;;;;;;-140.72;100.00;52445.66;6246883;23;20324;-72
2023/09/01 11:52:07;;;;;;;;;;;;;;;-140.72;100.00;52470.00;6247594;22;19915;-70
2023/09/01 11:54:40;;;;;;;;;;;;;;;-140.72;100.00;52467.97;6246683;23;19938;-72
2023/09/01 11:57:13;;;;;;;;;;;;;;;-140.72;100.00;52467.97;6245394;23;19916;-73
2023/09/01 11:59:45;;;;;;;;;;;;;;;-140.72;100.00;52461.88;6245178;23;19918;-71
2023/09/01 12:02:12;;;;;;;;;;;;;;;-140.72;100.00;52482.16;6245321;23;19935;-73
2023/09/01 12:05:01;;;;;;;;;;;;;;;-140.72;100.00;52453.75;6245174;23;20354;-74
2023/09/01 12:07:27;;;;;;;;;;;;;;;-140.72;100.00;52480.16;6249740;23;19974;-77
2023/09/01 12:10:18;;;;;;;;;;;;;;;-140.72;100.00;52498.41;6249272;22;19931;-77
2023/09/01 12:12:44;;;;;;;;;;;;;;;-140.72;100.00;52520.72;6247714;22;19919;-79
2023/09/01 12:15:09;;;;;;;;;;;;;;;-140.72;100.00;52498.41;6246823;23;19911;-80
2023/09/01 12:17:47;;;;;;;;;;;;;;;-140.72;100.00;52522.75;6247288;22;19942;-77
2023/09/01 12:20:12;;;;;;;;;;;;;;;-140.72;100.00;52524.78;6246401;22;19912;-76
2023/09/01 12:22:37;;;;;;;;;;;;;;;-140.72;100.00;52480.16;6249661;23;19963;-77